METAR AND TAF INFORMATION
METAR FOR SAME
ADDS - METARS form results

(0048 UTC 24 April 2018)
Data provider http://aviationweather.gov/adds/metars/
 
METAR text: SAME 240000Z 14004KT CAVOK 17/12 Q1019
Conditions at: SAME (MENDOZA/EL PLUME, AR) observed 0000 UTC 24 April 2018
Temperature: 17.0°C (63°F)
Dewpoint: 12.0°C (54°F) [RH = 72%]
Pressure (altimeter): 30.09 inches Hg (1019.0 mb)
Winds: from the SE (140 degrees) at 5 MPH (4 knots; 2.1 m/s)
Visibility: 6 or more miles (10+ km)
Ceiling: ceiling and visibility are OK
Clouds: unknown
Weather: no significant weather observed at this time

Forecast for: SAME (MENDOZA/EL PLUME, AR)
Text: TAF SAME 232300Z 2400/2424 20005KT 9999 SCT040 FEW050 TN13/2410Z TX23/2420Z
Forecast period: 0000 UTC 24 April 2018 to 0000 UTC 25 April 2018
Forecast type: FROM: standard forecast or significant change
Winds: from the SSW (200 degrees) at 6 MPH (5 knots; 2.6 m/s)
Visibility: 6 or more miles (10+ km)
Clouds: scattered clouds at 4000 feet AGL
few clouds at 5000 feet AGL
Weather: no significant weather forecast for this period
Forecast for: SAME (MENDOZA/EL PLUME, AR)
Text: TAF SAME 232300Z 2400/2424 20005KT 9999 SCT040 FEW050 TN13/2410Z TX23/2420Z
Forecast period: 0000 UTC 24 April 2018 to 0000 UTC 25 April 2018
Forecast type: FROM: standard forecast or significant change
Winds: from the SSW (200 degrees) at 6 MPH (5 knots; 2.6 m/s)
Visibility: 6 or more miles (10+ km)
Clouds: scattered clouds at 4000 feet AGL
few clouds at 5000 feet AGL
Weather: no significant weather forecast for this period
Forecast for: SAME (MENDOZA/EL PLUME, AR)
Text: TAF SAME 232300Z 2400/2424 20005KT 9999 SCT040 FEW050 TN13/2410Z TX23/2420Z
Forecast period: 1400 to 1600 UTC 24 April 2018
Forecast type: PROBABLE: 30 percent likelihood of the following during this time
Winds: variable direction winds at 3 MPH (3 knots; 1.6 m/s)
Visibility: 5 miles (8 km)
Clouds: scattered clouds at 3000 feet AGL
few clouds at 5000 feet AGL
Weather: RA  (rain)
Forecast for: SAME (MENDOZA/EL PLUME, AR)
Text: TAF SAME 232300Z 2400/2424 20005KT 9999 SCT040 FEW050 TN13/2410Z TX23/2420Z
Forecast period: 1400 to 1600 UTC 24 April 2018
Forecast type: PROBABLE: 30 percent likelihood of the following during this time
Winds: variable direction winds at 3 MPH (3 knots; 1.6 m/s)
Visibility: 5 miles (8 km)
Clouds: scattered clouds at 3000 feet AGL
few clouds at 5000 feet AGL
Weather: RA  (rain)

 AIRPORT MAP

 RUNWAY INFORMATION
Runway 18 Runway length 9301 ft Runway width 177 ft
Runway elevation 2290 ft Runway displaced threshold 0 ft Runway heading 181
Runway 36 Runway length 9301 ft Runway width 177 ft
Runway elevation 2310 ft Runway displaced threshold 0 ft Runway heading 1

 AIRPORT FREQUENCIES
Type ATIS Name ATIS Frequency 114.9 MHZ
Type GND Name GND Frequency 121.95 MHZ
Type TCA Name MENDOZA CO Frequency 124.2 MHZ
Type TWR Name MENDOZA AP Frequency 119.9 MHZ

 AIRPORT NEAR NAVIGATION AIDS
Type VOR-DME Name Mendoza Frequency 114900 KHZ